sensor_id;sensor_type;location;lat;lon;timestamp;P1;durP1;ratioP1;P2;durP2;ratioP2
64684;SDS011;51109;47.414;18.954;2023-04-24T00:00:10;12.25;;;7.85;;
64684;SDS011;51109;47.414;18.954;2023-04-24T00:02:40;10.35;;;6.65;;
64684;SDS011;51109;47.414;18.954;2023-04-24T00:05:11;10.13;;;6.80;;
64684;SDS011;51109;47.414;18.954;2023-04-24T00:07:39;15.73;;;7.75;;
64684;SDS011;51109;47.414;18.954;2023-04-24T00:10:09;9.20;;;7.45;;
64684;SDS011;51109;47.414;18.954;2023-04-24T00:12:36;10.05;;;7.38;;
64684;SDS011;51109;47.414;18.954;2023-04-24T00:15:02;13.18;;;6.82;;
64684;SDS011;51109;47.414;18.954;2023-04-24T00:17:29;10.88;;;7.53;;
64684;SDS011;51109;47.414;18.954;2023-04-24T00:19:55;14.00;;;7.68;;
64684;SDS011;51109;47.414;18.954;2023-04-24T00:22:25;11.05;;;6.80;;
64684;SDS011;51109;47.414;18.954;2023-04-24T00:24:51;12.75;;;7.88;;
64684;SDS011;51109;47.414;18.954;2023-04-24T00:27:17;10.73;;;7.93;;
64684;SDS011;51109;47.414;18.954;2023-04-24T00:29:43;13.05;;;7.38;;
64684;SDS011;51109;47.414;18.954;2023-04-24T00:32:09;11.02;;;7.43;;
64684;SDS011;51109;47.414;18.954;2023-04-24T00:34:35;11.80;;;7.40;;
64684;SDS011;51109;47.414;18.954;2023-04-24T00:37:01;10.73;;;7.40;;
64684;SDS011;51109;47.414;18.954;2023-04-24T00:39:27;12.18;;;6.88;;
64684;SDS011;51109;47.414;18.954;2023-04-24T00:41:53;11.48;;;7.38;;
64684;SDS011;51109;47.414;18.954;2023-04-24T00:44:20;10.73;;;6.63;;
64684;SDS011;51109;47.414;18.954;2023-04-24T00:46:46;14.60;;;7.45;;
64684;SDS011;51109;47.414;18.954;2023-04-24T00:49:20;16.55;;;7.63;;
64684;SDS011;51109;47.414;18.954;2023-04-24T00:51:47;12.20;;;7.18;;
64684;SDS011;51109;47.414;18.954;2023-04-24T00:54:17;14.82;;;7.38;;
64684;SDS011;51109;47.414;18.954;2023-04-24T00:56:43;12.13;;;7.85;;
64684;SDS011;51109;47.414;18.954;2023-04-24T00:59:10;11.13;;;7.63;;
64684;SDS011;51109;47.414;18.954;2023-04-24T01:01:37;12.95;;;7.88;;
64684;SDS011;51109;47.414;18.954;2023-04-24T01:04:07;11.82;;;7.57;;
64684;SDS011;51109;47.414;18.954;2023-04-24T01:06:35;18.25;;;7.65;;
64684;SDS011;51109;47.414;18.954;2023-04-24T01:09:08;10.45;;;7.72;;
64684;SDS011;51109;47.414;18.954;2023-04-24T01:11:37;11.35;;;7.18;;
64684;SDS011;51109;47.414;18.954;2023-04-24T01:14:03;9.82;;;7.72;;
64684;SDS011;51109;47.414;18.954;2023-04-24T01:16:29;11.65;;;7.93;;
64684;SDS011;51109;47.414;18.954;2023-04-24T01:18:55;10.43;;;7.45;;
64684;SDS011;51109;47.414;18.954;2023-04-24T01:21:21;15.20;;;7.80;;
64684;SDS011;51109;47.414;18.954;2023-04-24T01:23:52;14.57;;;8.40;;
64684;SDS011;51109;47.414;18.954;2023-04-24T01:26:18;10.38;;;7.20;;
64684;SDS011;51109;47.414;18.954;2023-04-24T01:28:45;10.60;;;8.00;;
64684;SDS011;51109;47.414;18.954;2023-04-24T01:31:11;13.82;;;8.82;;
64684;SDS011;51109;47.414;18.954;2023-04-24T01:33:37;14.15;;;9.80;;
64684;SDS011;51109;47.414;18.954;2023-04-24T01:36:03;14.07;;;10.38;;
64684;SDS011;51109;47.414;18.954;2023-04-24T01:38:30;14.43;;;9.73;;
64684;SDS011;51109;47.414;18.954;2023-04-24T01:40:55;18.73;;;11.25;;
64684;SDS011;51109;47.414;18.954;2023-04-24T01:43:21;15.10;;;11.27;;
64684;SDS011;51109;47.414;18.954;2023-04-24T01:45:47;16.08;;;10.40;;
64684;SDS011;51109;47.414;18.954;2023-04-24T01:48:13;16.88;;;10.40;;
64684;SDS011;51109;47.414;18.954;2023-04-24T01:50:40;16.10;;;11.15;;
64684;SDS011;51109;47.414;18.954;2023-04-24T01:53:06;15.88;;;11.13;;
64684;SDS011;51109;47.414;18.954;2023-04-24T01:55:32;13.65;;;10.48;;
64684;SDS011;51109;47.414;18.954;2023-04-24T01:57:58;17.80;;;10.55;;
64684;SDS011;51109;47.414;18.954;2023-04-24T02:00:25;13.88;;;11.18;;
64684;SDS011;51109;47.414;18.954;2023-04-24T02:02:51;13.77;;;10.50;;
64684;SDS011;51109;47.414;18.954;2023-04-24T02:05:17;15.32;;;10.65;;
64684;SDS011;51109;47.414;18.954;2023-04-24T02:07:43;19.48;;;10.48;;
64684;SDS011;51109;47.414;18.954;2023-04-24T02:10:09;12.20;;;9.77;;
64684;SDS011;51109;47.414;18.954;2023-04-24T02:12:36;14.07;;;11.23;;
64684;SDS011;51109;47.414;18.954;2023-04-24T02:15:02;12.57;;;10.85;;
64684;SDS011;51109;47.414;18.954;2023-04-24T02:17:28;17.83;;;10.60;;
64684;SDS011;51109;47.414;18.954;2023-04-24T02:19:54;15.18;;;11.57;;
64684;SDS011;51109;47.414;18.954;2023-04-24T02:22:20;12.77;;;10.35;;
64684;SDS011;51109;47.414;18.954;2023-04-24T02:24:46;16.95;;;10.30;;
64684;SDS011;51109;47.414;18.954;2023-04-24T02:27:12;18.77;;;10.95;;
64684;SDS011;51109;47.414;18.954;2023-04-24T02:29:38;23.08;;;10.68;;
64684;SDS011;51109;47.414;18.954;2023-04-24T02:32:04;15.77;;;10.60;;
64684;SDS011;51109;47.414;18.954;2023-04-24T02:34:30;15.88;;;10.48;;
64684;SDS011;51109;47.414;18.954;2023-04-24T02:36:56;15.02;;;10.32;;
64684;SDS011;51109;47.414;18.954;2023-04-24T02:39:21;17.02;;;11.05;;
64684;SDS011;51109;47.414;18.954;2023-04-24T02:41:47;12.18;;;10.27;;
64684;SDS011;51109;47.414;18.954;2023-04-24T02:44:13;12.07;;;10.45;;
64684;SDS011;51109;47.414;18.954;2023-04-24T02:46:39;16.92;;;11.52;;
64684;SDS011;51109;47.414;18.954;2023-04-24T02:49:07;12.57;;;10.63;;
64684;SDS011;51109;47.414;18.954;2023-04-24T02:51:33;15.73;;;11.25;;
64684;SDS011;51109;47.414;18.954;2023-04-24T02:53:59;18.08;;;10.13;;
64684;SDS011;51109;47.414;18.954;2023-04-24T02:56:25;14.88;;;10.55;;
64684;SDS011;51109;47.414;18.954;2023-04-24T02:58:50;19.77;;;10.65;;
64684;SDS011;51109;47.414;18.954;2023-04-24T03:03:44;14.32;;;10.07;;
64684;SDS011;51109;47.414;18.954;2023-04-24T03:06:09;12.10;;;8.30;;
64684;SDS011;51109;47.414;18.954;2023-04-24T03:08:35;10.95;;;7.97;;
64684;SDS011;51109;47.414;18.954;2023-04-24T03:11:01;11.48;;;6.90;;
64684;SDS011;51109;47.414;18.954;2023-04-24T03:13:27;10.30;;;7.03;;
64684;SDS011;51109;47.414;18.954;2023-04-24T03:15:53;8.25;;;6.00;;
64684;SDS011;51109;47.414;18.954;2023-04-24T03:18:19;11.68;;;6.97;;
64684;SDS011;51109;47.414;18.954;2023-04-24T03:20:45;9.57;;;6.13;;
64684;SDS011;51109;47.414;18.954;2023-04-24T03:23:12;9.30;;;6.38;;
64684;SDS011;51109;47.414;18.954;2023-04-24T03:25:38;8.20;;;6.68;;
64684;SDS011;51109;47.414;18.954;2023-04-24T03:28:04;9.30;;;6.95;;
64684;SDS011;51109;47.414;18.954;2023-04-24T03:30:30;9.13;;;7.13;;
64684;SDS011;51109;47.414;18.954;2023-04-24T03:32:56;8.65;;;7.03;;
64684;SDS011;51109;47.414;18.954;2023-04-24T03:35:22;9.65;;;6.78;;
64684;SDS011;51109;47.414;18.954;2023-04-24T03:37:48;9.65;;;6.93;;
64684;SDS011;51109;47.414;18.954;2023-04-24T03:40:14;9.05;;;6.80;;
64684;SDS011;51109;47.414;18.954;2023-04-24T03:42:40;9.07;;;6.78;;
64684;SDS011;51109;47.414;18.954;2023-04-24T03:45:06;10.60;;;7.35;;
64684;SDS011;51109;47.414;18.954;2023-04-24T03:47:32;10.70;;;7.18;;
64684;SDS011;51109;47.414;18.954;2023-04-24T03:49:58;11.48;;;6.43;;
64684;SDS011;51109;47.414;18.954;2023-04-24T03:52:24;8.77;;;6.82;;
64684;SDS011;51109;47.414;18.954;2023-04-24T03:54:50;9.20;;;7.03;;
64684;SDS011;51109;47.414;18.954;2023-04-24T03:57:16;13.50;;;6.50;;
64684;SDS011;51109;47.414;18.954;2023-04-24T03:59:42;9.90;;;6.70;;
64684;SDS011;51109;47.414;18.954;2023-04-24T04:02:08;7.82;;;6.07;;
64684;SDS011;51109;47.414;18.954;2023-04-24T04:04:34;10.65;;;6.85;;
64684;SDS011;51109;47.414;18.954;2023-04-24T04:07:00;7.95;;;6.20;;
64684;SDS011;51109;47.414;18.954;2023-04-24T04:09:28;11.55;;;6.88;;
64684;SDS011;51109;47.414;18.954;2023-04-24T04:11:54;9.88;;;7.10;;
64684;SDS011;51109;47.414;18.954;2023-04-24T04:14:21;13.20;;;6.97;;
64684;SDS011;51109;47.414;18.954;2023-04-24T04:16:47;11.90;;;7.82;;
64684;SDS011;51109;47.414;18.954;2023-04-24T04:19:13;13.50;;;7.75;;
64684;SDS011;51109;47.414;18.954;2023-04-24T04:21:39;9.52;;;6.85;;
64684;SDS011;51109;47.414;18.954;2023-04-24T04:24:05;11.05;;;7.57;;
64684;SDS011;51109;47.414;18.954;2023-04-24T04:26:32;11.23;;;8.25;;
64684;SDS011;51109;47.414;18.954;2023-04-24T04:28:58;10.38;;;7.60;;
64684;SDS011;51109;47.414;18.954;2023-04-24T04:31:25;13.80;;;8.45;;
64684;SDS011;51109;47.414;18.954;2023-04-24T04:33:51;11.82;;;7.88;;
64684;SDS011;51109;47.414;18.954;2023-04-24T04:36:17;11.98;;;8.45;;
64684;SDS011;51109;47.414;18.954;2023-04-24T04:38:43;11.95;;;8.57;;
64684;SDS011;51109;47.414;18.954;2023-04-24T04:41:10;9.20;;;7.22;;
64684;SDS011;51109;47.414;18.954;2023-04-24T04:43:36;12.90;;;7.43;;
64684;SDS011;51109;47.414;18.954;2023-04-24T04:46:03;10.50;;;7.75;;
64684;SDS011;51109;47.414;18.954;2023-04-24T04:48:29;11.40;;;7.60;;
64684;SDS011;51109;47.414;18.954;2023-04-24T04:50:57;12.25;;;7.47;;
64684;SDS011;51109;47.414;18.954;2023-04-24T04:53:23;18.05;;;8.45;;
64684;SDS011;51109;47.414;18.954;2023-04-24T04:55:49;11.93;;;8.23;;
64684;SDS011;51109;47.414;18.954;2023-04-24T04:58:15;11.10;;;8.07;;
64684;SDS011;51109;47.414;18.954;2023-04-24T05:00:41;13.45;;;8.88;;
64684;SDS011;51109;47.414;18.954;2023-04-24T05:03:07;14.93;;;9.20;;
64684;SDS011;51109;47.414;18.954;2023-04-24T05:05:33;10.15;;;7.95;;
64684;SDS011;51109;47.414;18.954;2023-04-24T05:07:59;13.98;;;8.70;;
64684;SDS011;51109;47.414;18.954;2023-04-24T05:10:25;14.43;;;8.52;;
64684;SDS011;51109;47.414;18.954;2023-04-24T05:12:51;13.38;;;8.35;;
64684;SDS011;51109;47.414;18.954;2023-04-24T05:15:17;11.50;;;7.47;;
64684;SDS011;51109;47.414;18.954;2023-04-24T05:17:43;13.25;;;8.32;;
64684;SDS011;51109;47.414;18.954;2023-04-24T05:20:10;11.40;;;8.18;;
64684;SDS011;51109;47.414;18.954;2023-04-24T05:22:36;14.43;;;8.20;;
64684;SDS011;51109;47.414;18.954;2023-04-24T05:25:02;10.48;;;7.80;;
64684;SDS011;51109;47.414;18.954;2023-04-24T05:27:28;10.77;;;7.90;;
64684;SDS011;51109;47.414;18.954;2023-04-24T05:29:54;12.95;;;8.63;;
64684;SDS011;51109;47.414;18.954;2023-04-24T05:32:20;11.80;;;8.48;;
64684;SDS011;51109;47.414;18.954;2023-04-24T05:34:46;10.05;;;7.65;;
64684;SDS011;51109;47.414;18.954;2023-04-24T05:37:12;9.55;;;6.93;;
64684;SDS011;51109;47.414;18.954;2023-04-24T05:39:38;15.57;;;8.75;;
64684;SDS011;51109;47.414;18.954;2023-04-24T05:42:04;10.40;;;7.93;;
64684;SDS011;51109;47.414;18.954;2023-04-24T05:44:30;10.90;;;7.88;;
64684;SDS011;51109;47.414;18.954;2023-04-24T05:46:56;11.95;;;8.75;;
64684;SDS011;51109;47.414;18.954;2023-04-24T05:49:22;11.50;;;7.88;;
64684;SDS011;51109;47.414;18.954;2023-04-24T05:51:48;12.00;;;7.85;;
64684;SDS011;51109;47.414;18.954;2023-04-24T05:54:14;13.52;;;8.80;;
64684;SDS011;51109;47.414;18.954;2023-04-24T05:56:40;13.20;;;8.48;;
64684;SDS011;51109;47.414;18.954;2023-04-24T05:59:06;12.85;;;8.45;;
64684;SDS011;51109;47.414;18.954;2023-04-24T06:01:34;11.85;;;8.55;;
64684;SDS011;51109;47.414;18.954;2023-04-24T06:04:02;9.02;;;6.93;;
64684;SDS011;51109;47.414;18.954;2023-04-24T06:06:28;12.65;;;7.80;;
64684;SDS011;51109;47.414;18.954;2023-04-24T06:08:54;12.80;;;8.85;;
64684;SDS011;51109;47.414;18.954;2023-04-24T06:11:20;10.93;;;8.75;;
64684;SDS011;51109;47.414;18.954;2023-04-24T06:13:47;41.63;;;36.40;;
64684;SDS011;51109;47.414;18.954;2023-04-24T06:16:13;12.80;;;9.25;;
64684;SDS011;51109;47.414;18.954;2023-04-24T06:18:39;9.82;;;7.72;;
64684;SDS011;51109;47.414;18.954;2023-04-24T06:21:05;11.90;;;8.70;;
64684;SDS011;51109;47.414;18.954;2023-04-24T06:23:31;12.43;;;9.30;;
64684;SDS011;51109;47.414;18.954;2023-04-24T06:25:58;14.00;;;8.75;;
64684;SDS011;51109;47.414;18.954;2023-04-24T06:28:24;14.02;;;8.43;;
64684;SDS011;51109;47.414;18.954;2023-04-24T06:30:50;12.20;;;8.55;;
64684;SDS011;51109;47.414;18.954;2023-04-24T06:33:16;14.95;;;9.30;;
64684;SDS011;51109;47.414;18.954;2023-04-24T06:35:42;12.30;;;9.35;;
64684;SDS011;51109;47.414;18.954;2023-04-24T06:38:08;11.32;;;8.77;;
64684;SDS011;51109;47.414;18.954;2023-04-24T06:40:34;14.68;;;9.60;;
64684;SDS011;51109;47.414;18.954;2023-04-24T06:43:00;12.88;;;9.07;;
64684;SDS011;51109;47.414;18.954;2023-04-24T06:45:28;13.27;;;8.50;;
64684;SDS011;51109;47.414;18.954;2023-04-24T06:47:55;13.30;;;8.98;;
64684;SDS011;51109;47.414;18.954;2023-04-24T06:50:21;14.23;;;9.52;;
64684;SDS011;51109;47.414;18.954;2023-04-24T06:52:47;11.63;;;8.77;;
64684;SDS011;51109;47.414;18.954;2023-04-24T06:55:13;10.45;;;8.27;;
64684;SDS011;51109;47.414;18.954;2023-04-24T06:57:42;11.73;;;8.75;;
64684;SDS011;51109;47.414;18.954;2023-04-24T07:00:09;11.15;;;8.00;;
64684;SDS011;51109;47.414;18.954;2023-04-24T07:02:37;11.07;;;8.05;;
64684;SDS011;51109;47.414;18.954;2023-04-24T07:05:04;11.75;;;8.80;;
64684;SDS011;51109;47.414;18.954;2023-04-24T07:07:30;13.93;;;9.23;;
64684;SDS011;51109;47.414;18.954;2023-04-24T07:09:56;12.30;;;8.55;;
64684;SDS011;51109;47.414;18.954;2023-04-24T07:12:22;13.00;;;8.52;;
64684;SDS011;51109;47.414;18.954;2023-04-24T07:14:49;11.73;;;8.15;;
64684;SDS011;51109;47.414;18.954;2023-04-24T07:17:15;10.15;;;8.18;;
64684;SDS011;51109;47.414;18.954;2023-04-24T07:19:42;11.55;;;7.97;;
64684;SDS011;51109;47.414;18.954;2023-04-24T07:22:08;12.38;;;8.32;;
64684;SDS011;51109;47.414;18.954;2023-04-24T07:24:33;17.73;;;9.27;;
64684;SDS011;51109;47.414;18.954;2023-04-24T07:26:59;14.43;;;7.78;;
64684;SDS011;51109;47.414;18.954;2023-04-24T07:29:28;11.38;;;8.10;;
64684;SDS011;51109;47.414;18.954;2023-04-24T07:31:54;12.95;;;8.63;;
64684;SDS011;51109;47.414;18.954;2023-04-24T07:34:22;15.13;;;7.65;;
64684;SDS011;51109;47.414;18.954;2023-04-24T07:36:47;14.60;;;7.93;;
64684;SDS011;51109;47.414;18.954;2023-04-24T07:39:14;10.38;;;7.65;;
64684;SDS011;51109;47.414;18.954;2023-04-24T07:41:39;10.57;;;8.45;;
64684;SDS011;51109;47.414;18.954;2023-04-24T07:44:05;12.43;;;8.55;;
64684;SDS011;51109;47.414;18.954;2023-04-24T07:46:32;13.43;;;8.07;;
64684;SDS011;51109;47.414;18.954;2023-04-24T07:48:58;11.75;;;8.60;;
64684;SDS011;51109;47.414;18.954;2023-04-24T07:51:26;11.90;;;8.50;;
64684;SDS011;51109;47.414;18.954;2023-04-24T07:53:53;9.85;;;6.88;;
64684;SDS011;51109;47.414;18.954;2023-04-24T07:56:20;10.18;;;7.47;;
64684;SDS011;51109;47.414;18.954;2023-04-24T07:58:46;12.48;;;7.97;;
64684;SDS011;51109;47.414;18.954;2023-04-24T08:01:12;11.45;;;7.22;;
64684;SDS011;51109;47.414;18.954;2023-04-24T08:03:38;10.80;;;7.53;;
64684;SDS011;51109;47.414;18.954;2023-04-24T08:06:04;11.52;;;8.02;;
64684;SDS011;51109;47.414;18.954;2023-04-24T08:08:30;11.48;;;7.55;;
64684;SDS011;51109;47.414;18.954;2023-04-24T08:10:56;9.10;;;7.18;;
64684;SDS011;51109;47.414;18.954;2023-04-24T08:13:22;10.38;;;7.00;;
64684;SDS011;51109;47.414;18.954;2023-04-24T08:15:48;9.43;;;7.53;;
64684;SDS011;51109;47.414;18.954;2023-04-24T08:18:14;10.75;;;7.43;;
64684;SDS011;51109;47.414;18.954;2023-04-24T08:20:41;11.38;;;8.15;;
64684;SDS011;51109;47.414;18.954;2023-04-24T08:23:07;9.77;;;7.13;;
64684;SDS011;51109;47.414;18.954;2023-04-24T08:25:33;10.85;;;6.80;;
64684;SDS011;51109;47.414;18.954;2023-04-24T08:28:01;10.88;;;7.72;;
64684;SDS011;51109;47.414;18.954;2023-04-24T08:30:29;10.52;;;8.02;;
64684;SDS011;51109;47.414;18.954;2023-04-24T08:32:55;10.98;;;7.53;;
64684;SDS011;51109;47.414;18.954;2023-04-24T08:35:21;10.10;;;7.18;;
64684;SDS011;51109;47.414;18.954;2023-04-24T08:37:48;10.68;;;7.10;;
64684;SDS011;51109;47.414;18.954;2023-04-24T08:40:14;10.35;;;6.75;;
64684;SDS011;51109;47.414;18.954;2023-04-24T08:42:42;10.27;;;6.80;;
64684;SDS011;51109;47.414;18.954;2023-04-24T08:45:09;13.57;;;7.78;;
64684;SDS011;51109;47.414;18.954;2023-04-24T08:47:37;13.13;;;7.07;;
64684;SDS011;51109;47.414;18.954;2023-04-24T08:50:04;10.73;;;7.32;;
64684;SDS011;51109;47.414;18.954;2023-04-24T08:52:34;12.95;;;7.63;;
64684;SDS011;51109;47.414;18.954;2023-04-24T08:55:00;11.00;;;7.47;;
64684;SDS011;51109;47.414;18.954;2023-04-24T08:57:28;10.90;;;7.90;;
64684;SDS011;51109;47.414;18.954;2023-04-24T08:59:54;11.63;;;7.57;;
64684;SDS011;51109;47.414;18.954;2023-04-24T09:02:23;8.73;;;6.95;;
64684;SDS011;51109;47.414;18.954;2023-04-24T09:04:50;10.02;;;6.85;;
64684;SDS011;51109;47.414;18.954;2023-04-24T09:07:17;7.70;;;6.30;;
64684;SDS011;51109;47.414;18.954;2023-04-24T09:09:44;11.20;;;7.35;;
64684;SDS011;51109;47.414;18.954;2023-04-24T09:12:11;8.80;;;6.13;;
64684;SDS011;51109;47.414;18.954;2023-04-24T09:14:37;9.40;;;6.18;;
64684;SDS011;51109;47.414;18.954;2023-04-24T09:17:07;7.40;;;5.90;;
64684;SDS011;51109;47.414;18.954;2023-04-24T09:19:33;9.48;;;6.43;;
64684;SDS011;51109;47.414;18.954;2023-04-24T09:21:59;9.68;;;6.18;;
64684;SDS011;51109;47.414;18.954;2023-04-24T09:24:30;7.32;;;5.75;;
64684;SDS011;51109;47.414;18.954;2023-04-24T09:26:56;8.10;;;5.60;;
64684;SDS011;51109;47.414;18.954;2023-04-24T09:29:29;9.60;;;6.70;;
64684;SDS011;51109;47.414;18.954;2023-04-24T09:31:57;8.18;;;6.53;;
64684;SDS011;51109;47.414;18.954;2023-04-24T09:34:23;9.90;;;6.90;;
64684;SDS011;51109;47.414;18.954;2023-04-24T09:36:51;6.47;;;5.68;;
64684;SDS011;51109;47.414;18.954;2023-04-24T09:39:17;8.57;;;6.40;;
64684;SDS011;51109;47.414;18.954;2023-04-24T09:41:53;11.05;;;6.97;;
64684;SDS011;51109;47.414;18.954;2023-04-24T09:44:23;12.95;;;7.28;;
64684;SDS011;51109;47.414;18.954;2023-04-24T09:46:52;10.25;;;6.20;;
64684;SDS011;51109;47.414;18.954;2023-04-24T09:49:22;9.40;;;6.22;;
64684;SDS011;51109;47.414;18.954;2023-04-24T09:52:10;9.27;;;5.88;;
64684;SDS011;51109;47.414;18.954;2023-04-24T09:54:37;7.85;;;5.65;;
64684;SDS011;51109;47.414;18.954;2023-04-24T09:57:03;9.52;;;6.20;;
64684;SDS011;51109;47.414;18.954;2023-04-24T09:59:30;10.40;;;7.05;;
64684;SDS011;51109;47.414;18.954;2023-04-24T10:01:56;9.00;;;6.50;;
64684;SDS011;51109;47.414;18.954;2023-04-24T10:04:25;7.53;;;5.95;;
64684;SDS011;51109;47.414;18.954;2023-04-24T10:06:52;7.78;;;6.25;;
64684;SDS011;51109;47.414;18.954;2023-04-24T10:09:21;8.43;;;5.90;;
64684;SDS011;51109;47.414;18.954;2023-04-24T10:11:49;7.07;;;5.15;;
64684;SDS011;51109;47.414;18.954;2023-04-24T10:14:25;7.28;;;4.72;;
64684;SDS011;51109;47.414;18.954;2023-04-24T10:16:54;7.70;;;5.13;;
64684;SDS011;51109;47.414;18.954;2023-04-24T10:19:21;8.98;;;6.00;;
64684;SDS011;51109;47.414;18.954;2023-04-24T10:21:55;8.50;;;5.82;;
64684;SDS011;51109;47.414;18.954;2023-04-24T10:24:22;7.40;;;5.55;;
64684;SDS011;51109;47.414;18.954;2023-04-24T10:26:48;10.20;;;6.28;;
64684;SDS011;51109;47.414;18.954;2023-04-24T10:29:15;10.40;;;6.32;;
64684;SDS011;51109;47.414;18.954;2023-04-24T10:31:42;9.57;;;6.43;;
64684;SDS011;51109;47.414;18.954;2023-04-24T10:34:10;9.85;;;7.15;;
64684;SDS011;51109;47.414;18.954;2023-04-24T10:36:38;11.90;;;6.55;;
64684;SDS011;51109;47.414;18.954;2023-04-24T10:39:09;12.25;;;7.82;;
64684;SDS011;51109;47.414;18.954;2023-04-24T10:41:37;10.30;;;6.80;;
64684;SDS011;51109;47.414;18.954;2023-04-24T10:44:04;7.35;;;6.00;;
64684;SDS011;51109;47.414;18.954;2023-04-24T10:46:31;10.13;;;6.82;;
64684;SDS011;51109;47.414;18.954;2023-04-24T10:48:57;9.00;;;6.43;;
64684;SDS011;51109;47.414;18.954;2023-04-24T10:51:23;13.13;;;7.05;;
64684;SDS011;51109;47.414;18.954;2023-04-24T10:54:24;8.65;;;6.68;;
64684;SDS011;51109;47.414;18.954;2023-04-24T10:56:51;9.27;;;6.40;;
64684;SDS011;51109;47.414;18.954;2023-04-24T10:59:27;8.38;;;6.20;;
64684;SDS011;51109;47.414;18.954;2023-04-24T11:02:00;10.40;;;6.60;;
64684;SDS011;51109;47.414;18.954;2023-04-24T11:04:29;9.13;;;6.45;;
64684;SDS011;51109;47.414;18.954;2023-04-24T11:06:57;8.50;;;6.20;;
64684;SDS011;51109;47.414;18.954;2023-04-24T11:09:24;12.35;;;6.88;;
64684;SDS011;51109;47.414;18.954;2023-04-24T11:11:53;8.35;;;6.30;;
64684;SDS011;51109;47.414;18.954;2023-04-24T11:14:30;8.88;;;5.70;;
64684;SDS011;51109;47.414;18.954;2023-04-24T11:17:26;9.60;;;4.95;;
64684;SDS011;51109;47.414;18.954;2023-04-24T11:20:01;5.32;;;3.78;;
64684;SDS011;51109;47.414;18.954;2023-04-24T11:22:38;4.30;;;3.45;;
64684;SDS011;51109;47.414;18.954;2023-04-24T11:25:10;5.18;;;3.42;;
64684;SDS011;51109;47.414;18.954;2023-04-24T11:27:40;3.83;;;3.00;;
64684;SDS011;51109;47.414;18.954;2023-04-24T11:30:10;4.00;;;3.13;;
64684;SDS011;51109;47.414;18.954;2023-04-24T11:32:37;4.45;;;2.75;;
64684;SDS011;51109;47.414;18.954;2023-04-24T11:37:46;5.10;;;2.75;;
64684;SDS011;51109;47.414;18.954;2023-04-24T11:40:15;4.63;;;3.17;;
64684;SDS011;51109;47.414;18.954;2023-04-24T11:42:43;5.20;;;3.53;;
64684;SDS011;51109;47.414;18.954;2023-04-24T11:45:10;7.47;;;4.03;;
64684;SDS011;51109;47.414;18.954;2023-04-24T11:47:41;5.25;;;4.32;;
64684;SDS011;51109;47.414;18.954;2023-04-24T11:50:09;6.20;;;4.60;;
64684;SDS011;51109;47.414;18.954;2023-04-24T11:52:39;6.95;;;5.10;;
64684;SDS011;51109;47.414;18.954;2023-04-24T11:57:44;6.40;;;4.88;;
64684;SDS011;51109;47.414;18.954;2023-04-24T12:00:17;7.57;;;4.40;;
64684;SDS011;51109;47.414;18.954;2023-04-24T12:02:48;5.82;;;3.60;;
64684;SDS011;51109;47.414;18.954;2023-04-24T12:07:49;4.90;;;3.63;;
64684;SDS011;51109;47.414;18.954;2023-04-24T12:10:20;4.60;;;3.75;;
64684;SDS011;51109;47.414;18.954;2023-04-24T12:12:51;5.72;;;4.22;;
64684;SDS011;51109;47.414;18.954;2023-04-24T12:15:18;7.80;;;5.50;;
64684;SDS011;51109;47.414;18.954;2023-04-24T12:17:46;5.13;;;4.45;;
64684;SDS011;51109;47.414;18.954;2023-04-24T12:20:14;7.30;;;5.78;;
64684;SDS011;51109;47.414;18.954;2023-04-24T12:22:43;9.88;;;5.78;;
64684;SDS011;51109;47.414;18.954;2023-04-24T12:25:14;6.15;;;4.60;;
64684;SDS011;51109;47.414;18.954;2023-04-24T12:27:41;2.97;;;2.50;;
64684;SDS011;51109;47.414;18.954;2023-04-24T12:30:10;4.68;;;1.80;;
64684;SDS011;51109;47.414;18.954;2023-04-24T12:32:50;2.50;;;2.30;;
64684;SDS011;51109;47.414;18.954;2023-04-24T12:35:20;3.95;;;2.63;;
64684;SDS011;51109;47.414;18.954;2023-04-24T12:37:49;3.42;;;2.10;;
64684;SDS011;51109;47.414;18.954;2023-04-24T12:40:16;4.25;;;2.50;;
64684;SDS011;51109;47.414;18.954;2023-04-24T12:42:44;2.20;;;1.83;;
64684;SDS011;51109;47.414;18.954;2023-04-24T12:45:12;3.38;;;2.33;;
64684;SDS011;51109;47.414;18.954;2023-04-24T12:47:39;3.00;;;2.70;;
64684;SDS011;51109;47.414;18.954;2023-04-24T12:50:07;4.93;;;2.63;;
64684;SDS011;51109;47.414;18.954;2023-04-24T12:52:34;4.57;;;4.10;;
64684;SDS011;51109;47.414;18.954;2023-04-24T12:55:00;5.00;;;4.00;;
64684;SDS011;51109;47.414;18.954;2023-04-24T12:57:27;5.00;;;3.35;;
64684;SDS011;51109;47.414;18.954;2023-04-24T12:59:55;6.22;;;3.97;;
64684;SDS011;51109;47.414;18.954;2023-04-24T13:02:22;5.43;;;3.78;;
64684;SDS011;51109;47.414;18.954;2023-04-24T13:04:53;5.88;;;2.92;;
64684;SDS011;51109;47.414;18.954;2023-04-24T13:07:19;3.97;;;2.92;;
64684;SDS011;51109;47.414;18.954;2023-04-24T13:09:47;5.07;;;2.17;;
64684;SDS011;51109;47.414;18.954;2023-04-24T13:12:14;3.35;;;2.53;;
64684;SDS011;51109;47.414;18.954;2023-04-24T13:14:40;4.32;;;3.45;;
64684;SDS011;51109;47.414;18.954;2023-04-24T13:17:06;4.57;;;2.60;;
64684;SDS011;51109;47.414;18.954;2023-04-24T13:19:36;3.22;;;2.75;;
64684;SDS011;51109;47.414;18.954;2023-04-24T13:22:03;4.07;;;3.15;;
64684;SDS011;51109;47.414;18.954;2023-04-24T13:24:30;4.38;;;2.80;;
64684;SDS011;51109;47.414;18.954;2023-04-24T13:26:57;4.68;;;3.28;;
64684;SDS011;51109;47.414;18.954;2023-04-24T13:29:23;4.25;;;3.10;;
64684;SDS011;51109;47.414;18.954;2023-04-24T13:31:50;4.72;;;3.17;;
64684;SDS011;51109;47.414;18.954;2023-04-24T13:34:17;3.00;;;2.70;;
64684;SDS011;51109;47.414;18.954;2023-04-24T13:36:43;3.03;;;2.72;;
64684;SDS011;51109;47.414;18.954;2023-04-24T13:39:09;3.47;;;2.65;;
64684;SDS011;51109;47.414;18.954;2023-04-24T13:41:36;5.13;;;3.22;;
64684;SDS011;51109;47.414;18.954;2023-04-24T13:44:02;4.10;;;3.10;;
64684;SDS011;51109;47.414;18.954;2023-04-24T13:46:28;3.13;;;2.80;;
64684;SDS011;51109;47.414;18.954;2023-04-24T13:48:55;7.95;;;3.33;;
64684;SDS011;51109;47.414;18.954;2023-04-24T13:51:22;7.18;;;3.63;;
64684;SDS011;51109;47.414;18.954;2023-04-24T13:53:48;4.25;;;3.42;;
64684;SDS011;51109;47.414;18.954;2023-04-24T13:56:14;6.13;;;4.15;;
64684;SDS011;51109;47.414;18.954;2023-04-24T13:58:41;8.65;;;4.40;;
64684;SDS011;51109;47.414;18.954;2023-04-24T14:01:07;6.80;;;5.13;;
64684;SDS011;51109;47.414;18.954;2023-04-24T14:03:33;8.68;;;4.85;;
64684;SDS011;51109;47.414;18.954;2023-04-24T14:05:59;7.75;;;4.82;;
64684;SDS011;51109;47.414;18.954;2023-04-24T14:08:25;11.90;;;4.80;;
64684;SDS011;51109;47.414;18.954;2023-04-24T14:10:51;9.32;;;5.47;;
64684;SDS011;51109;47.414;18.954;2023-04-24T14:13:17;7.32;;;5.50;;
64684;SDS011;51109;47.414;18.954;2023-04-24T14:15:44;8.82;;;5.65;;
64684;SDS011;51109;47.414;18.954;2023-04-24T14:18:10;8.30;;;5.78;;
64684;SDS011;51109;47.414;18.954;2023-04-24T14:20:36;11.77;;;5.45;;
64684;SDS011;51109;47.414;18.954;2023-04-24T14:23:02;8.55;;;6.30;;
64684;SDS011;51109;47.414;18.954;2023-04-24T14:25:29;8.73;;;6.07;;
64684;SDS011;51109;47.414;18.954;2023-04-24T14:27:56;7.93;;;6.10;;
64684;SDS011;51109;47.414;18.954;2023-04-24T14:30:24;9.90;;;7.22;;
64684;SDS011;51109;47.414;18.954;2023-04-24T14:32:50;8.85;;;6.82;;
64684;SDS011;51109;47.414;18.954;2023-04-24T14:35:16;12.50;;;7.15;;